Time;durP1;ratioP1;P1;durP2;ratioP2;P2;SDS_P1;SDS_P2;PMS_P1;PMS_P2;Temp;Humidity;BMP_temperature;BMP_pressure;BME280_temperature;BME280_humidity;BME280_pressure;Samples;Min_cycle;Max_cycle;Signal;HPM_P1;HPM_P2
2022/08/01 00:00:45;;;;;;;1.92;0.70;;;;;;;12.83;100.00;100229.78;7395713;19;20022;-83
2022/08/01 00:03:11;;;;;;;0.50;0.40;;;;;;;12.79;100.00;100226.41;7392232;19;20015;-83
2022/08/01 00:05:37;;;;;;;0.57;0.32;;;;;;;12.70;100.00;100232.84;7391819;19;20023;-83
2022/08/01 00:08:03;;;;;;;1.17;0.68;;;;;;;12.67;100.00;100238.63;7390310;19;20018;-82
2022/08/01 00:10:29;;;;;;;0.38;0.35;;;;;;;12.61;100.00;100234.94;7392900;19;20021;-83
2022/08/01 00:12:55;;;;;;;1.42;0.52;;;;;;;12.64;100.00;100231.22;7390323;19;20037;-83
2022/08/01 00:15:22;;;;;;;2.95;0.40;;;;;;;12.63;100.00;100235.25;7392175;19;20106;-83
2022/08/01 00:17:48;;;;;;;0.30;0.30;;;;;;;12.60;100.00;100241.81;7391426;19;20019;-82
2022/08/01 00:20:14;;;;;;;0.40;0.35;;;;;;;12.55;100.00;100243.25;7390252;19;20476;-81
2022/08/01 00:22:41;;;;;;;0.52;0.50;;;;;;;12.48;100.00;100234.44;7394840;19;20022;-82
2022/08/01 00:25:07;;;;;;;0.75;0.40;;;;;;;12.41;100.00;100235.59;7387748;19;20018;-81
2022/08/01 00:27:33;;;;;;;0.47;0.32;;;;;;;12.22;100.00;100227.84;7390257;19;20006;-84
2022/08/01 00:30:00;;;;;;;0.30;0.30;;;;;;;12.30;100.00;100231.84;7390629;19;20035;-83
2022/08/01 00:32:26;;;;;;;1.52;0.75;;;;;;;12.43;100.00;100235.88;7388545;19;20010;-83
2022/08/01 00:34:52;;;;;;;1.83;0.47;;;;;;;12.42;100.00;100242.75;7389332;19;20038;-83
2022/08/01 00:37:18;;;;;;;0.32;0.32;;;;;;;12.44;100.00;100242.25;7392964;19;20112;-83
2022/08/01 00:39:44;;;;;;;0.30;0.30;;;;;;;12.41;100.00;100241.19;7390905;19;20027;-83
2022/08/01 00:42:12;;;;;;;0.63;0.40;;;;;;;12.42;100.00;100237.16;7390659;19;20378;-83
2022/08/01 00:44:39;;;;;;;0.30;0.30;;;;;;;12.37;100.00;100229.44;7388874;19;20018;-82
2022/08/01 00:47:06;;;;;;;0.52;0.52;;;;;;;12.42;100.00;100222.41;7390597;19;20082;-82
2022/08/01 00:49:32;;;;;;;0.85;0.43;;;;;;;12.43;100.00;100226.75;7390963;19;20706;-83
2022/08/01 00:51:59;;;;;;;2.22;0.50;;;;;;;12.44;100.00;100242.25;7393449;19;20354;-83
2022/08/01 00:54:27;;;;;;;2.20;0.95;;;;;;;12.49;100.00;100241.59;7390723;19;20073;-82
2022/08/01 00:56:54;;;;;;;1.58;0.38;;;;;;;12.49;100.00;100238.81;7389514;19;20042;-81
2022/08/01 00:59:23;;;;;;;0.30;0.30;;;;;;;12.45;100.00;100238.22;7390188;19;20018;-83
2022/08/01 01:01:50;;;;;;;0.95;0.50;;;;;;;12.47;100.00;100244.09;7387922;19;20081;-83
2022/08/01 01:04:16;;;;;;;0.45;0.45;;;;;;;12.52;100.00;100240.63;7386224;19;20456;-83
2022/08/01 01:06:54;;;;;;;2.95;0.70;;;;;;;12.99;100.00;100242.50;7390393;19;20015;-84
2022/08/01 01:09:45;;;;;;;0.70;0.70;;;;;;;13.38;100.00;100250.28;7387709;19;20034;-83
2022/08/01 01:12:17;;;;;;;0.50;0.28;;;;;;;13.45;100.00;100244.28;7394173;19;20357;-85
2022/08/01 01:15:04;;;;;;;0.28;0.28;;;;;;;13.49;100.00;100252.50;7394503;19;20010;-85
2022/08/01 01:17:50;;;;;;;2.58;0.45;;;;;;;13.40;100.00;100247.78;7391967;19;20017;-82
2022/08/01 01:20:18;;;;;;;6.38;0.60;;;;;;;13.31;100.00;100233.91;7387193;19;20365;-83
2022/08/01 01:22:58;;;;;;;0.90;0.47;;;;;;;13.37;100.00;100237.56;7389452;19;20434;-82
2022/08/01 01:25:37;;;;;;;0.95;0.47;;;;;;;13.41;100.00;100243.72;7386163;19;20022;-84
2022/08/01 01:28:22;;;;;;;0.68;0.40;;;;;;;13.41;100.00;100243.72;7391134;19;20014;-83
2022/08/01 01:30:53;;;;;;;0.47;0.47;;;;;;;13.30;100.00;100243.53;7388253;19;20077;-83
2022/08/01 01:33:22;;;;;;;0.30;0.30;;;;;;;13.29;100.00;100242.03;7386491;19;20030;-83
2022/08/01 01:35:53;;;;;;;0.60;0.60;;;;;;;13.24;100.00;100239.91;7389011;19;20015;-83
2022/08/01 01:38:28;;;;;;;;;;;;;;;13.28;100.00;100237.66;7388138;19;20053;-82
2022/08/01 01:40:56;;;;;;;0.40;0.40;;;;;;;13.39;100.00;100226.66;7387786;19;19915;-83
2022/08/01 01:43:24;;;;;;;0.47;0.47;;;;;;;13.28;100.00;100229.28;7387196;19;20018;-82
2022/08/01 01:45:51;;;;;;;1.00;0.65;;;;;;;13.46;100.00;100229.06;7388170;19;20025;-82
2022/08/01 01:48:20;;;;;;;0.40;0.40;;;;;;;13.65;100.00;100246.34;7387512;19;20481;-81
2022/08/01 01:50:48;;;;;;;0.82;0.68;;;;;;;10.43;100.00;100238.84;7391018;19;20022;-82
2022/08/01 01:53:18;;;;;;;0.57;0.57;;;;;;;9.52;100.00;100243.50;7387282;19;20029;-82
2022/08/01 01:55:48;;;;;;;0.40;0.40;;;;;;;9.27;100.00;100231.84;7387722;19;20844;-81
2022/08/01 01:58:16;;;;;;;0.50;0.50;;;;;;;8.86;100.00;100236.56;7392057;19;20025;-82
2022/08/01 02:00:44;;;;;;;2.30;1.05;;;;;;;8.67;100.00;100239.69;7390068;19;20014;-82
2022/08/01 02:03:12;;;;;;;0.55;0.38;;;;;;;8.71;100.00;100248.66;7385481;19;20022;-82
2022/08/01 02:05:39;;;;;;;0.47;0.47;;;;;;;8.59;100.00;100247.50;7388048;19;20365;-82
2022/08/01 02:08:07;;;;;;;0.45;0.45;;;;;;;8.52;100.00;100245.00;7387331;19;20017;-82
2022/08/01 02:10:36;;;;;;;0.85;0.60;;;;;;;8.60;100.00;100251.81;7386401;19;20019;-82
2022/08/01 02:13:06;;;;;;;0.73;0.70;;;;;;;8.58;100.00;100248.72;7389996;19;20036;-81
2022/08/01 02:15:38;;;;;;;0.70;0.70;;;;;;;8.75;100.00;100252.09;7387596;19;20027;-81
2022/08/01 02:18:07;;;;;;;0.20;0.20;;;;;;;8.84;100.00;100239.03;7385031;19;20596;-82
2022/08/01 02:20:36;;;;;;;0.40;0.40;;;;;;;8.88;100.00;100253.53;7387154;19;20022;-81
2022/08/01 02:23:12;;;;;;;0.30;0.30;;;;;;;8.95;100.00;100250.50;7385222;19;20018;-81
2022/08/01 02:25:49;;;;;;;0.50;0.50;;;;;;;8.94;100.00;100242.63;7384923;19;20027;-81
2022/08/01 02:28:27;;;;;;;0.73;0.60;;;;;;;9.42;100.00;100249.50;7386074;19;20022;-83
2022/08/01 02:31:00;;;;;;;0.30;0.30;;;;;;;9.67;100.00;100243.69;7385599;19;20029;-82
2022/08/01 02:33:42;;;;;;;0.45;0.45;;;;;;;9.09;100.00;100238.88;7383284;19;20050;-82
2022/08/01 02:36:12;;;;;;;0.32;0.32;;;;;;;9.14;100.00;100232.69;7388261;19;20313;-82
2022/08/01 02:38:43;;;;;;;0.50;0.50;;;;;;;8.94;100.00;100240.63;7385458;19;20030;-82
2022/08/01 02:41:13;;;;;;;0.38;0.38;;;;;;;9.00;100.00;100244.38;7386801;19;20018;-82
2022/08/01 02:43:45;;;;;;;0.80;0.80;;;;;;;9.19;100.00;100236.88;7386837;19;20413;-81
2022/08/01 02:46:24;;;;;;;0.75;0.50;;;;;;;9.08;100.00;100233.75;7387153;19;20015;-82
2022/08/01 02:48:53;;;;;;;0.30;0.30;;;;;;;8.92;100.00;100243.06;7389682;19;20023;-82
2022/08/01 02:51:23;;;;;;;0.80;0.43;;;;;;;9.00;100.00;100241.59;7391106;19;20014;-82
2022/08/01 02:53:51;;;;;;;0.85;0.82;;;;;;;9.41;100.00;100242.38;7391068;19;20022;-82
2022/08/01 02:56:19;;;;;;;0.22;0.22;;;;;;;10.09;100.00;100230.75;7394807;19;20025;-82
2022/08/01 02:58:49;;;;;;;0.20;0.20;;;;;;;9.79;100.00;100234.44;7391468;19;20014;-82
2022/08/01 03:01:17;;;;;;;0.32;0.32;;;;;;;9.84;100.00;100239.41;7390794;19;20049;-82
2022/08/01 03:03:44;;;;;;;0.30;0.30;;;;;;;9.49;100.00;100241.63;7391684;19;20073;-82
2022/08/01 03:06:12;;;;;;;0.38;0.38;;;;;;;10.01;100.00;100235.09;7392358;19;20018;-82
2022/08/01 03:08:39;;;;;;;0.68;0.68;;;;;;;10.42;100.00;100233.72;7393635;19;20514;-82
2022/08/01 03:11:06;;;;;;;0.65;0.65;;;;;;;10.15;100.00;100222.59;7394407;19;20015;-81
2022/08/01 03:13:33;;;;;;;0.20;0.17;;;;;;;10.44;100.00;100229.25;7390164;19;20025;-82
2022/08/01 03:16:02;;;;;;;0.28;0.28;;;;;;;10.48;100.00;100218.72;7392437;19;20081;-82
2022/08/01 03:18:29;;;;;;;0.38;0.38;;;;;;;10.61;100.00;100216.53;7393730;19;20022;-81
2022/08/01 03:20:57;;;;;;;1.15;0.55;;;;;;;10.81;100.00;100226.38;7392960;19;20022;-82
2022/08/01 03:23:24;;;;;;;0.82;0.40;;;;;;;11.54;100.00;100208.16;7396651;19;20024;-82
2022/08/01 03:25:52;;;;;;;0.30;0.30;;;;;;;12.54;100.00;100210.97;7393048;19;20018;-81
2022/08/01 03:28:19;;;;;;;0.10;0.10;;;;;;;12.06;100.00;100213.06;7391157;19;20023;-82
2022/08/01 03:30:47;;;;;;;1.00;0.30;;;;;;;12.63;100.00;100222.06;7390979;19;20064;-83
2022/08/01 03:33:13;;;;;;;1.35;0.95;;;;;;;12.75;100.00;100211.84;7389724;19;20017;-82
2022/08/01 03:35:46;;;;;;;0.85;0.30;;;;;;;12.94;100.00;100204.81;7392978;19;20018;-82
2022/08/01 03:38:16;;;;;;;0.43;0.43;;;;;;;13.14;100.00;100207.72;7391655;19;20022;-82
2022/08/01 03:41:08;;;;;;;0.33;0.33;;;;;;;13.08;100.00;100209.63;7392917;19;20018;-81
2022/08/01 03:43:44;;;;;;;0.80;0.65;;;;;;;12.98;100.00;100210.97;7393781;19;20014;-81
2022/08/01 03:46:18;;;;;;;1.65;0.40;;;;;;;13.04;100.00;100203.44;7391021;19;20014;-82
2022/08/01 03:48:48;;;;;;;0.20;0.20;;;;;;;12.96;100.00;100213.47;7391091;19;20078;-81
2022/08/01 03:51:17;;;;;;;0.75;0.52;;;;;;;13.00;100.00;100208.44;7391595;19;20015;-82
2022/08/01 03:53:47;;;;;;;0.50;0.50;;;;;;;13.06;100.00;100206.53;7393041;19;20018;-81
2022/08/01 03:56:18;;;;;;;0.40;0.40;;;;;;;13.00;100.00;100205.66;7391236;19;20025;-81
2022/08/01 03:58:46;;;;;;;0.25;0.25;;;;;;;12.94;100.00;100210.41;7391332;19;20660;-82
2022/08/01 04:01:13;;;;;;;0.63;0.50;;;;;;;12.82;100.00;100203.09;7391106;19;20019;-82
2022/08/01 04:03:39;;;;;;;0.68;0.63;;;;;;;12.81;100.00;100212.72;7389512;19;20018;-81
2022/08/01 04:06:08;;;;;;;0.60;0.50;;;;;;;12.85;100.00;100205.69;7391175;19;20019;-82
2022/08/01 04:08:36;;;;;;;2.60;0.65;;;;;;;12.80;100.00;100208.38;7389286;19;20536;-82
2022/08/01 04:11:02;;;;;;;0.15;0.15;;;;;;;12.81;100.00;100201.53;7389948;19;20006;-82
2022/08/01 04:13:28;;;;;;;1.05;0.30;;;;;;;12.78;100.00;100208.06;7393190;19;20023;-82
2022/08/01 04:15:54;;;;;;;0.93;0.40;;;;;;;12.92;100.00;100204.50;7390377;19;20022;-82
2022/08/01 04:18:20;;;;;;;3.55;0.60;;;;;;;13.09;100.00;100204.81;7392155;19;20086;-82
2022/08/01 04:20:47;;;;;;;0.40;0.40;;;;;;;13.14;100.00;100206.94;7390347;19;20022;-81
2022/08/01 04:23:16;;;;;;;0.40;0.40;;;;;;;13.13;100.00;100211.75;7391238;19;20018;-82
2022/08/01 04:25:44;;;;;;;0.40;0.40;;;;;;;13.15;100.00;100214.06;7390616;19;20038;-80
2022/08/01 04:28:16;;;;;;;1.00;0.50;;;;;;;13.15;100.00;100205.66;7391205;19;20021;-81
2022/08/01 04:30:45;;;;;;;0.50;0.45;;;;;;;13.10;100.00;100212.72;7389027;19;20018;-82
2022/08/01 04:33:15;;;;;;;0.30;0.30;;;;;;;12.80;100.00;100199.97;7388919;19;20082;-81
2022/08/01 04:35:47;;;;;;;0.38;0.28;;;;;;;13.04;100.00;100209.03;7390165;19;20603;-81
2022/08/01 04:38:17;;;;;;;0.43;0.43;;;;;;;13.08;100.00;100206.81;7394700;19;20025;-82
2022/08/01 04:40:47;;;;;;;0.60;0.47;;;;;;;13.07;100.00;100202.50;7388159;19;20018;-82
2022/08/01 04:43:14;;;;;;;0.73;0.68;;;;;;;13.08;100.00;100198.44;7389306;19;20394;-81
2022/08/01 04:45:43;;;;;;;2.78;0.63;;;;;;;13.17;100.00;100198.34;7389561;19;20018;-81
2022/08/01 04:48:10;;;;;;;1.33;0.43;;;;;;;13.32;100.00;100196.28;7390501;19;20082;-82
2022/08/01 04:50:37;;;;;;;1.25;0.60;;;;;;;13.28;100.00;100201.31;7390012;19;20491;-82
2022/08/01 04:53:03;;;;;;;1.10;1.10;;;;;;;13.19;100.00;100195.06;7388376;19;20796;-82
2022/08/01 04:55:31;;;;;;;0.70;0.70;;;;;;;13.19;100.00;100209.81;7387709;19;20056;-82
2022/08/01 04:57:57;;;;;;;0.43;0.43;;;;;;;13.18;100.00;100208.28;7391380;19;20028;-82
2022/08/01 05:00:23;;;;;;;0.38;0.38;;;;;;;13.35;100.00;100205.72;7391579;19;20026;-81
2022/08/01 05:02:49;;;;;;;0.77;0.63;;;;;;;13.37;100.00;100214.41;7388432;19;20023;-82
2022/08/01 05:05:15;;;;;;;0.75;0.40;;;;;;;13.45;100.00;100207.91;7390136;19;20435;-81
2022/08/01 05:07:41;;;;;;;0.63;0.63;;;;;;;13.43;100.00;100207.63;7392570;19;20354;-81
2022/08/01 05:10:08;;;;;;;0.50;0.50;;;;;;;13.56;100.00;100215.69;7392605;19;20092;-82
2022/08/01 05:12:35;;;;;;;0.98;0.45;;;;;;;13.59;100.00;100211.94;7389539;19;20023;-82
2022/08/01 05:15:02;;;;;;;1.77;1.23;;;;;;;13.58;100.00;100213.94;7389910;19;20022;-82
2022/08/01 05:17:28;;;;;;;0.65;0.65;;;;;;;13.62;100.00;100219.38;7388239;19;20056;-82
2022/08/01 05:19:54;;;;;;;0.20;0.20;;;;;;;13.71;100.00;100212.88;7388748;19;20014;-82
2022/08/01 05:22:20;;;;;;;0.30;0.30;;;;;;;13.81;100.00;100226.25;7388136;19;20019;-81
2022/08/01 05:24:47;;;;;;;1.33;1.00;;;;;;;13.81;100.00;100222.66;7389043;19;20014;-81
2022/08/01 05:27:13;;;;;;;0.60;0.60;;;;;;;13.83;100.00;100206.91;7389833;19;20048;-81
2022/08/01 05:29:40;;;;;;;0.47;0.47;;;;;;;13.33;100.00;100214.63;7388818;19;20020;-82
2022/08/01 05:32:06;;;;;;;0.40;0.40;;;;;;;13.58;100.00;100213.94;7389468;19;20022;-82
2022/08/01 05:34:32;;;;;;;0.40;0.40;;;;;;;13.74;100.00;100209.84;7391789;19;20039;-82
2022/08/01 05:36:59;;;;;;;0.77;0.45;;;;;;;13.58;100.00;100208.34;7389022;19;20011;-82
2022/08/01 05:39:25;;;;;;;0.38;0.38;;;;;;;13.76;100.00;100206.56;7388209;19;20031;-82
2022/08/01 05:41:51;;;;;;;7.55;0.68;;;;;;;13.96;100.00;100209.38;7387530;19;20026;-81
2022/08/01 05:44:17;;;;;;;1.00;0.43;;;;;;;14.00;100.00;100215.53;7388048;19;20036;-81
2022/08/01 05:46:43;;;;;;;1.05;1.00;;;;;;;14.09;100.00;100224.56;7389230;19;20027;-82
2022/08/01 05:49:09;;;;;;;3.42;1.38;;;;;;;14.27;100.00;100226.31;7385445;19;20018;-81
2022/08/01 05:51:36;;;;;;;2.42;1.05;;;;;;;14.13;100.00;100224.34;7386586;19;20029;-82
2022/08/01 05:54:02;;;;;;;8.18;1.83;;;;;;;14.16;100.00;100217.78;7386660;19;20492;-81
2022/08/01 05:56:28;;;;;;;4.28;0.90;;;;;;;14.17;100.00;100214.47;7387826;19;20027;-83
2022/08/01 05:58:54;;;;;;;4.93;1.75;;;;;;;14.30;100.00;100217.72;7384262;19;20014;-82
2022/08/01 06:01:20;;;;;;;1.58;0.50;;;;;;;14.28;100.00;100214.59;7387806;19;20022;-82
2022/08/01 06:03:47;;;;;;;1.65;1.20;;;;;;;14.45;100.00;100212.00;7387387;19;20023;-82
2022/08/01 06:06:14;;;;;;;1.55;1.13;;;;;;;14.66;100.00;100218.34;7387346;19;20701;-81
2022/08/01 06:08:40;;;;;;;1.65;1.10;;;;;;;14.88;100.00;100227.72;7389421;19;20873;-82
2022/08/01 06:11:07;;;;;;;4.82;1.80;;;;;;;14.90;100.00;100218.84;7386649;19;20018;-83
2022/08/01 06:13:33;;;;;;;0.77;0.73;;;;;;;14.79;100.00;100213.88;7386660;19;20019;-81
2022/08/01 06:15:59;;;;;;;2.22;0.77;;;;;;;14.95;100.00;100221.69;7388818;19;20044;-85
2022/08/01 06:18:25;;;;;;;1.08;0.88;;;;;;;15.11;100.00;100218.25;7388530;19;20010;-84
2022/08/01 06:20:51;;;;;;;1.95;1.10;;;;;;;15.16;100.00;100225.16;7390674;19;20011;-85
2022/08/01 06:23:18;;;;;;;1.27;0.70;;;;;;;15.24;100.00;100219.88;7398865;19;20040;-84
2022/08/01 06:25:44;;;;;;;3.05;1.02;;;;;;;15.56;100.00;100213.75;7398197;19;20022;-83
2022/08/01 06:28:10;;;;;;;1.17;0.95;;;;;;;15.73;100.00;100211.03;7398238;19;20057;-85
2022/08/01 06:30:36;;;;;;;0.50;0.38;;;;;;;15.72;100.00;100220.72;7398501;19;20010;-84
2022/08/01 06:33:02;;;;;;;0.20;0.20;;;;;;;15.87;100.00;100224.13;7395791;19;20030;-83
2022/08/01 06:35:29;;;;;;;0.80;0.80;;;;;;;15.90;100.00;100220.31;7396671;19;20029;-84
2022/08/01 06:37:56;;;;;;;0.30;0.30;;;;;;;15.96;100.00;100223.16;7397040;19;20086;-83
2022/08/01 06:40:23;;;;;;;0.40;0.28;;;;;;;15.98;100.00;100224.19;7395235;19;20014;-84
2022/08/01 06:42:50;;;;;;;0.40;0.40;;;;;;;16.05;100.00;100232.13;7396824;19;20022;-84
2022/08/01 06:45:17;;;;;;;0.55;0.52;;;;;;;16.13;100.00;100216.34;7396008;19;20030;-85
2022/08/01 06:47:44;;;;;;;0.73;0.43;;;;;;;16.18;100.00;100226.03;7398663;19;20019;-84
2022/08/01 06:50:11;;;;;;;2.92;0.93;;;;;;;16.20;100.00;100213.03;7396726;19;20010;-84
2022/08/01 06:52:37;;;;;;;14.68;1.05;;;;;;;16.37;100.00;100219.47;7393576;19;20010;-83
2022/08/01 06:55:05;;;;;;;0.50;0.50;;;;;;;16.38;100.00;100218.19;7396618;19;20691;-84
2022/08/01 06:57:31;;;;;;;0.55;0.55;;;;;;;16.35;100.00;100213.56;7396375;19;20018;-84
2022/08/01 06:59:57;;;;;;;0.90;0.50;;;;;;;16.33;100.00;100216.13;7397337;19;20014;-84
2022/08/01 07:02:23;;;;;;;1.20;0.30;;;;;;;16.25;100.00;100223.53;7395437;19;20019;-84
2022/08/01 07:04:49;;;;;;;3.15;1.05;;;;;;;16.22;100.00;100216.09;7395816;19;20095;-83
2022/08/01 07:07:16;;;;;;;1.00;0.50;;;;;;;16.20;100.00;100224.25;7397372;19;20022;-84
2022/08/01 07:09:42;;;;;;;3.22;1.65;;;;;;;16.14;100.00;100234.72;7400876;19;20022;-84
2022/08/01 07:12:08;;;;;;;2.08;1.08;;;;;;;16.14;100.00;100222.69;7394100;19;20025;-84
2022/08/01 07:14:34;;;;;;;7.60;1.67;;;;;;;16.26;100.00;100221.47;7396784;19;20015;-84
2022/08/01 07:17:00;;;;;;;2.08;1.48;;;;;;;16.20;100.00;100210.22;7397715;19;20032;-84
2022/08/01 07:19:27;;;;;;;5.55;1.80;;;;;;;16.31;100.00;100213.06;7398652;19;20027;-84
2022/08/01 07:21:53;;;;;;;4.25;1.25;;;;;;;16.62;100.00;100218.53;7398467;19;20019;-85
2022/08/01 07:24:20;;;;;;;5.82;1.27;;;;;;;16.79;100.00;100210.13;7397934;19;20362;-84
2022/08/01 07:26:48;;;;;;;1.35;0.90;;;;;;;16.88;100.00;100217.56;7394836;19;20101;-84
2022/08/01 07:29:14;;;;;;;0.75;0.63;;;;;;;16.98;100.00;100213.22;7395215;19;20018;-84
2022/08/01 07:31:41;;;;;;;4.00;0.95;;;;;;;16.86;100.00;100208.84;7397748;19;20022;-83
2022/08/01 07:34:07;;;;;;;2.60;0.88;;;;;;;16.83;100.00;100204.25;7394222;19;20047;-84
2022/08/01 07:36:33;;;;;;;4.40;1.17;;;;;;;16.90;100.00;100198.88;7394701;19;20019;-84
2022/08/01 07:39:00;;;;;;;2.28;1.02;;;;;;;16.98;100.00;100201.97;7394755;19;20022;-84
2022/08/01 07:41:26;;;;;;;4.18;1.17;;;;;;;17.04;100.00;100194.28;7394408;19;20652;-85
2022/08/01 07:43:52;;;;;;;2.50;0.77;;;;;;;17.16;100.00;100181.75;7390824;19;20017;-83
2022/08/01 07:46:18;;;;;;;1.27;1.17;;;;;;;17.23;100.00;100186.84;7391649;19;20659;-84
2022/08/01 07:48:44;;;;;;;1.63;0.77;;;;;;;17.28;100.00;100195.28;7391877;19;20023;-83
2022/08/01 07:51:11;;;;;;;1.50;1.05;;;;;;;17.24;100.00;100183.50;7387473;19;20505;-82
2022/08/01 07:53:37;;;;;;;1.05;0.30;;;;;;;17.31;100.00;100185.03;7390449;19;20351;-83
2022/08/01 07:56:07;;;;;;;2.85;0.73;;;;;;;17.54;100.00;100186.59;7389750;19;20481;-84
2022/08/01 07:58:34;;;;;;;1.20;0.88;;;;;;;17.71;100.00;100186.53;7391876;19;20014;-85
2022/08/01 08:01:00;;;;;;;5.97;0.75;;;;;;;17.85;100.00;100196.72;7396908;19;20022;-82
2022/08/01 08:03:26;;;;;;;3.05;0.98;;;;;;;17.98;100.00;100191.28;7393299;19;20038;-83
2022/08/01 08:05:52;;;;;;;7.13;0.77;;;;;;;18.07;100.00;100179.72;7397140;19;20042;-83
2022/08/01 08:08:18;;;;;;;1.55;0.43;;;;;;;18.22;100.00;100185.81;7393354;19;20030;-83
2022/08/01 08:10:45;;;;;;;1.13;0.95;;;;;;;18.28;100.00;100188.63;7397074;19;20089;-85
2022/08/01 08:13:11;;;;;;;0.85;0.40;;;;;;;18.35;100.00;100182.41;7389778;19;20018;-82
2022/08/01 08:15:38;;;;;;;0.32;0.32;;;;;;;18.49;100.00;100192.63;7393928;19;20018;-82
2022/08/01 08:18:04;;;;;;;1.20;0.55;;;;;;;18.62;100.00;100187.91;7392702;19;20015;-83
2022/08/01 08:20:30;;;;;;;2.10;0.95;;;;;;;18.70;100.00;100179.66;7396029;19;20051;-83
2022/08/01 08:22:58;;;;;;;0.65;0.32;;;;;;;18.96;100.00;100185.59;7391661;19;20010;-83
2022/08/01 08:25:25;;;;;;;0.22;0.20;;;;;;;18.88;100.00;100179.75;7394938;19;20393;-83
2022/08/01 08:27:52;;;;;;;0.20;0.20;;;;;;;19.16;100.00;100179.53;7392927;19;20011;-83
2022/08/01 08:30:18;;;;;;;0.10;0.10;;;;;;;19.34;100.00;100181.69;7392812;19;20022;-82
2022/08/01 08:32:45;;;;;;;3.97;0.20;;;;;;;19.53;100.00;100182.50;7393372;19;20027;-81
2022/08/01 08:35:11;;;;;;;0.30;0.25;;;;;;;19.50;100.00;100183.59;7393124;19;20107;-83
2022/08/01 08:37:38;;;;;;;1.13;0.32;;;;;;;19.65;100.00;100177.50;7391794;19;20363;-82
2022/08/01 08:40:05;;;;;;;0.35;0.10;;;;;;;19.90;100.00;100178.28;7390076;19;20022;-84
2022/08/01 08:42:32;;;;;;;0.25;0.25;;;;;;;20.12;100.00;100183.66;7387780;19;20366;-83
2022/08/01 08:44:58;;;;;;;6.72;0.95;;;;;;;20.20;100.00;100176.09;7386664;19;20102;-83
2022/08/01 08:47:25;;;;;;;6.30;0.30;;;;;;;20.55;100.00;100175.09;7390668;19;20029;-84
2022/08/01 08:49:55;;;;;;;1.27;0.40;;;;;;;20.91;100.00;100182.78;7392792;19;20031;-82
2022/08/01 08:52:22;;;;;;;2.15;0.20;;;;;;;21.03;100.00;100194.69;7388255;19;20018;-84
2022/08/01 08:54:50;;;;;;;0.30;0.30;;;;;;;21.13;100.00;100188.09;7392145;19;20026;-85
2022/08/01 08:57:18;;;;;;;5.05;0.52;;;;;;;21.33;100.00;100180.28;7393750;19;20021;-83
2022/08/01 08:59:46;;;;;;;1.65;0.25;;;;;;;21.48;100.00;100169.19;7390859;19;20835;-83
2022/08/01 09:02:12;;;;;;;0.15;0.10;;;;;;;21.65;100.00;100164.75;7387663;19;20022;-82
2022/08/01 09:04:39;;;;;;;0.45;0.40;;;;;;;21.77;100.00;100170.94;7387924;19;20031;-83
2022/08/01 09:07:07;;;;;;;0.50;0.50;;;;;;;21.99;100.00;100169.75;7389548;19;20018;-83
2022/08/01 09:09:34;;;;;;;1.80;0.93;;;;;;;22.11;100.00;100171.78;7390369;19;20485;-83
2022/08/01 09:12:00;;;;;;;0.10;0.00;;;;;;;22.20;100.00;100179.84;7393278;19;20022;-82
2022/08/01 09:14:29;;;;;;;3.55;0.50;;;;;;;22.18;100.00;100176.81;7389334;19;20022;-80
2022/08/01 09:17:03;;;;;;;0.28;0.17;;;;;;;22.24;100.00;100171.78;7389157;19;20082;-80
2022/08/01 09:19:37;;;;;;;1.25;0.22;;;;;;;22.29;100.00;100168.06;7386887;19;20010;-78
2022/08/01 09:22:06;;;;;;;0.10;0.10;;;;;;;22.46;100.00;100165.59;7389312;19;20010;-82
2022/08/01 09:24:34;;;;;;;0.95;0.40;;;;;;;22.64;100.00;100155.41;7388244;19;20501;-83
2022/08/01 09:27:02;;;;;;;1.17;0.13;;;;;;;22.94;100.00;100163.47;7390966;19;20026;-83
2022/08/01 09:29:31;;;;;;;0.88;0.30;;;;;;;23.08;100.00;100162.88;7387933;19;20021;-82
2022/08/01 09:31:59;;;;;;;0.73;0.25;;;;;;;23.38;100.00;100158.75;7387881;19;20022;-82
2022/08/01 09:34:32;;;;;;;0.30;0.20;;;;;;;23.47;100.00;100159.03;7386616;19;20025;-83
2022/08/01 09:37:01;;;;;;;0.20;0.10;;;;;;;23.70;100.00;100159.91;7391695;19;20014;-86
2022/08/01 09:39:37;;;;;;;0.82;0.17;;;;;;;23.77;100.00;100164.13;7389826;19;20010;-85
2022/08/01 09:42:24;;;;;;;0.30;0.30;;;;;;;23.73;100.00;100167.34;7390164;19;20018;-85
2022/08/01 09:44:51;;;;;;;1.00;0.22;;;;;;;23.71;100.00;100158.63;7391695;19;20015;-84
2022/08/01 09:47:20;;;;;;;0.55;0.10;;;;;;;23.74;100.00;100157.47;7392536;19;20043;-84
2022/08/01 09:49:54;;;;;;;0.40;0.10;;;;;;;23.83;100.00;100168.34;7394123;19;20061;-87
2022/08/01 09:52:22;;;;;;;0.52;0.10;;;;;;;23.72;100.00;100168.66;7389785;19;20042;-84
2022/08/01 09:55:21;;;;;;;0.10;0.10;;;;;;;23.97;100.00;100169.72;7388973;19;20038;-83
2022/08/01 09:58:00;;;;;;;0.10;0.10;;;;;;;24.14;100.00;100177.06;7391432;19;20497;-86
2022/08/01 10:00:27;;;;;;;0.15;0.00;;;;;;;24.16;100.00;100169.50;7389474;19;20020;-83
2022/08/01 10:02:53;;;;;;;0.10;0.10;;;;;;;24.20;100.00;100163.41;7388461;19;20018;-83
2022/08/01 10:05:31;;;;;;;0.68;0.10;;;;;;;24.17;100.00;100161.72;7390700;19;20026;-84
2022/08/01 10:08:00;;;;;;;0.10;0.10;;;;;;;24.21;100.00;100162.88;7392658;19;20022;-84
2022/08/01 10:10:26;;;;;;;0.45;0.10;;;;;;;24.40;100.00;100165.41;7388320;19;20014;-83
2022/08/01 10:12:55;;;;;;;0.22;0.10;;;;;;;24.48;100.00;100166.19;7386402;19;20025;-85
2022/08/01 10:15:23;;;;;;;0.20;0.00;;;;;;;24.77;100.00;100156.22;7389452;19;20017;-87
2022/08/01 10:18:01;;;;;;;0.50;0.10;;;;;;;24.92;100.00;100159.09;7390416;19;20010;-83
2022/08/01 10:20:30;;;;;;;0.65;0.20;;;;;;;25.09;100.00;100161.38;7389644;19;20335;-84
2022/08/01 10:23:00;;;;;;;0.52;0.30;;;;;;;25.11;100.00;100164.41;7388223;19;20043;-84
2022/08/01 10:25:29;;;;;;;0.38;0.20;;;;;;;25.10;100.00;100163.66;7387901;19;20045;-83
2022/08/01 10:27:59;;;;;;;0.38;0.28;;;;;;;25.32;98.43;100162.88;7392815;19;20023;-85
2022/08/01 10:30:25;;;;;;;1.10;0.40;;;;;;;25.38;100.00;100159.88;7388959;19;20055;-84
2022/08/01 10:32:52;;;;;;;0.43;0.15;;;;;;;25.48;100.00;100170.16;7388152;19;20026;-86
2022/08/01 10:35:19;;;;;;;0.52;0.10;;;;;;;25.43;99.07;100162.53;7393396;19;20051;-86
2022/08/01 10:37:46;;;;;;;2.97;0.10;;;;;;;25.49;100.00;100171.66;7394282;19;20025;-84
2022/08/01 10:40:14;;;;;;;0.45;0.20;;;;;;;25.42;99.93;100177.38;7392772;19;20014;-88
2022/08/01 10:42:45;;;;;;;0.95;0.10;;;;;;;25.68;96.42;100164.78;7392288;19;20014;-88
2022/08/01 10:45:14;;;;;;;0.55;0.00;;;;;;;25.80;97.70;100160.94;7392408;19;20018;-86
2022/08/01 10:47:59;;;;;;;0.60;0.28;;;;;;;25.78;95.62;100151.44;7394809;19;20030;-85
2022/08/01 10:50:38;;;;;;;0.32;0.10;;;;;;;25.69;90.95;100160.59;7383624;19;20019;-82
2022/08/01 10:53:14;;;;;;;0.52;0.10;;;;;;;25.63;95.75;100160.03;7384876;19;20018;-85
2022/08/01 10:55:56;;;;;;;0.20;0.08;;;;;;;25.67;93.58;100157.53;7383992;19;20395;-84
2022/08/01 10:58:24;;;;;;;0.75;0.10;;;;;;;25.67;89.98;100152.59;7386139;19;20015;-83
2022/08/01 11:01:29;;;;;;;4.20;0.20;;;;;;;25.75;93.21;100138.34;7389943;19;20480;-86
2022/08/01 11:03:56;;;;;;;4.70;0.20;;;;;;;25.78;89.60;100137.94;7385162;19;20025;-85
2022/08/01 11:07:05;;;;;;;0.40;0.10;;;;;;;25.86;96.52;100137.94;7384967;19;20026;-85
2022/08/01 11:09:43;;;;;;;1.40;0.20;;;;;;;26.11;89.98;100138.81;7388505;19;20041;-87
2022/08/01 11:12:19;;;;;;;0.15;0.10;;;;;;;26.17;87.74;100142.19;7391806;19;20018;-84
2022/08/01 11:15:07;;;;;;;0.43;0.10;;;;;;;26.19;89.18;100134.56;7393096;19;20388;-83
2022/08/01 11:17:47;;;;;;;0.45;0.13;;;;;;;26.22;88.98;100132.66;7393090;19;20033;-84
2022/08/01 11:20:15;;;;;;;2.20;0.10;;;;;;;26.31;88.45;100123.50;7391995;19;20022;-86
2022/08/01 11:22:57;;;;;;;0.45;0.20;;;;;;;26.26;90.72;100113.78;7390925;19;20255;-85
2022/08/01 11:25:23;;;;;;;0.15;0.10;;;;;;;26.42;89.68;100105.91;7390232;19;20022;-82
2022/08/01 11:28:19;;;;;;;0.10;0.10;;;;;;;26.37;85.77;100101.16;7393317;19;20028;-84